createdAt,value
2018-10-03T00:00:07.349Z,11.20
2018-10-03T00:02:36.090Z,11.10
2018-10-03T00:05:04.758Z,11.00
2018-10-03T00:07:33.562Z,11.00
2018-10-03T00:10:02.210Z,11.00
2018-10-03T00:12:31.027Z,11.00
2018-10-03T00:14:59.685Z,11.00
2018-10-03T00:17:28.365Z,11.00
2018-10-03T00:19:57.135Z,10.90
2018-10-03T00:22:25.761Z,10.90
2018-10-03T00:24:54.449Z,10.90
2018-10-03T00:27:23.158Z,10.90
2018-10-03T00:29:51.841Z,10.80
2018-10-03T00:32:20.549Z,10.80
2018-10-03T00:34:49.198Z,10.80
2018-10-03T00:37:17.865Z,10.70
2018-10-03T00:39:46.527Z,10.60
2018-10-03T00:42:15.194Z,10.50
2018-10-03T00:44:43.872Z,10.30
2018-10-03T00:47:12.554Z,10.30
2018-10-03T00:49:41.217Z,10.20
2018-10-03T00:52:09.882Z,10.20
2018-10-03T00:54:38.533Z,10.10
2018-10-03T00:57:07.188Z,10.10
2018-10-03T00:59:35.852Z,10.00
2018-10-03T01:02:04.539Z,10.00
2018-10-03T01:04:33.197Z,9.90
2018-10-03T01:07:01.850Z,9.80
2018-10-03T01:09:30.518Z,9.80
2018-10-03T01:11:59.178Z,9.80
2018-10-03T01:14:27.845Z,9.70
2018-10-03T01:16:56.514Z,9.70
2018-10-03T01:19:25.338Z,9.60
2018-10-03T01:21:53.995Z,9.70
2018-10-03T01:24:22.661Z,9.70
2018-10-03T01:26:51.386Z,9.60
2018-10-03T01:29:20.131Z,9.60
2018-10-03T01:31:48.774Z,9.60
2018-10-03T01:34:17.538Z,9.60
2018-10-03T01:36:46.225Z,9.60
2018-10-03T01:39:14.925Z,9.60
2018-10-03T01:41:43.595Z,9.60
2018-10-03T01:44:12.266Z,9.60
2018-10-03T01:46:40.927Z,9.60
2018-10-03T01:49:09.597Z,9.50
2018-10-03T01:51:38.250Z,9.60
2018-10-03T01:54:06.936Z,9.60
2018-10-03T01:56:35.593Z,9.60
2018-10-03T01:59:04.266Z,9.50
2018-10-03T02:01:32.931Z,9.60
2018-10-03T02:04:01.603Z,9.60
2018-10-03T02:06:30.270Z,9.60
2018-10-03T02:08:58.932Z,9.60
2018-10-03T02:11:27.581Z,9.60
2018-10-03T02:13:56.253Z,9.60
2018-10-03T02:16:24.909Z,9.50
2018-10-03T02:18:53.571Z,9.40
2018-10-03T02:21:22.229Z,9.50
2018-10-03T02:23:50.895Z,9.60
2018-10-03T02:26:19.564Z,9.60
2018-10-03T02:28:48.255Z,9.50
2018-10-03T02:31:16.928Z,9.60
2018-10-03T02:33:45.589Z,9.60
2018-10-03T02:36:14.252Z,9.50
2018-10-03T02:38:42.921Z,9.50
2018-10-03T02:41:11.588Z,9.60
2018-10-03T02:43:40.257Z,9.60
2018-10-03T02:46:08.924Z,9.50
2018-10-03T02:48:37.596Z,9.50
2018-10-03T02:51:06.262Z,9.50
2018-10-03T02:53:34.945Z,9.50
2018-10-03T02:56:03.641Z,9.60
2018-10-03T02:58:32.322Z,9.50
2018-10-03T03:01:00.990Z,9.50
2018-10-03T03:03:29.665Z,9.50
2018-10-03T03:05:58.350Z,9.50
2018-10-03T03:08:27.071Z,9.50
2018-10-03T03:10:55.689Z,9.40
2018-10-03T03:13:24.356Z,9.40
2018-10-03T03:15:53.005Z,9.40
2018-10-03T03:18:21.695Z,9.40
2018-10-03T03:20:50.370Z,9.40
2018-10-03T03:23:19.065Z,9.40
2018-10-03T03:25:47.735Z,9.50
2018-10-03T03:28:16.397Z,9.60
2018-10-03T03:30:45.061Z,9.80
2018-10-03T03:33:13.701Z,9.90
2018-10-03T03:35:42.413Z,9.90
2018-10-03T03:38:11.068Z,9.90
2018-10-03T03:40:39.767Z,10.00
2018-10-03T03:43:08.451Z,10.00
2018-10-03T03:45:37.126Z,10.00
2018-10-03T03:48:05.823Z,9.90
2018-10-03T03:50:34.505Z,9.90
2018-10-03T03:53:03.174Z,9.90
2018-10-03T03:55:31.844Z,9.90
2018-10-03T03:58:00.516Z,9.80
2018-10-03T04:00:29.173Z,9.80
2018-10-03T04:02:57.828Z,9.80
2018-10-03T04:05:26.512Z,9.70
2018-10-03T04:07:55.159Z,9.70
2018-10-03T04:10:23.817Z,9.70
2018-10-03T04:12:52.673Z,9.60
2018-10-03T04:15:21.561Z,9.70
2018-10-03T04:17:50.205Z,9.80
2018-10-03T04:20:18.884Z,9.90
2018-10-03T04:22:47.537Z,10.00
2018-10-03T04:25:16.248Z,10.10
2018-10-03T04:27:44.882Z,10.20
2018-10-03T04:30:13.561Z,10.30
2018-10-03T04:32:42.417Z,10.30
2018-10-03T04:35:11.216Z,10.40
2018-10-03T04:37:39.847Z,10.40
2018-10-03T04:40:08.520Z,10.40
2018-10-03T04:42:37.186Z,10.40
2018-10-03T04:45:05.929Z,10.50
2018-10-03T04:47:34.566Z,10.40
2018-10-03T04:50:03.233Z,10.40
2018-10-03T04:52:31.897Z,10.40
2018-10-03T04:55:00.573Z,10.50
2018-10-03T04:57:29.219Z,10.60
2018-10-03T04:59:57.890Z,10.50
2018-10-03T05:02:26.564Z,10.50
2018-10-03T05:04:55.241Z,10.50
2018-10-03T05:07:23.914Z,10.50
2018-10-03T05:09:52.562Z,10.50
2018-10-03T05:12:21.228Z,10.50
2018-10-03T05:14:49.893Z,10.50
2018-10-03T05:17:18.567Z,10.60
2018-10-03T05:19:47.263Z,10.60
2018-10-03T05:22:15.912Z,10.60
2018-10-03T05:24:44.586Z,10.60
2018-10-03T05:27:13.262Z,10.70
2018-10-03T05:29:41.934Z,10.70
2018-10-03T05:32:10.605Z,10.60
2018-10-03T05:34:39.281Z,10.60
2018-10-03T05:37:08.053Z,10.50
2018-10-03T05:39:36.734Z,10.50
2018-10-03T05:42:05.403Z,10.50
2018-10-03T05:44:34.060Z,10.50
2018-10-03T05:47:02.728Z,10.50
2018-10-03T05:49:31.396Z,10.80
2018-10-03T05:52:00.098Z,11.00
2018-10-03T05:54:28.759Z,11.20
2018-10-03T05:56:57.413Z,11.30
2018-10-03T05:59:26.084Z,11.20
2018-10-03T06:01:54.763Z,11.10
2018-10-03T06:04:23.717Z,11.00
2018-10-03T06:06:52.590Z,10.90
2018-10-03T06:09:21.265Z,10.80
2018-10-03T06:11:49.944Z,10.80
2018-10-03T06:14:18.660Z,10.80
2018-10-03T06:16:47.327Z,10.90
2018-10-03T06:19:15.982Z,10.90
2018-10-03T06:21:44.649Z,11.00
2018-10-03T06:24:13.310Z,11.00
2018-10-03T06:26:41.970Z,11.00
2018-10-03T06:29:10.626Z,11.20
2018-10-03T06:31:39.297Z,11.20
2018-10-03T06:34:08.045Z,11.30
2018-10-03T06:36:36.724Z,11.60
2018-10-03T06:39:07.249Z,11.80
2018-10-03T06:41:36.442Z,12.10
2018-10-03T06:44:05.111Z,12.40
2018-10-03T06:46:34.009Z,12.70
2018-10-03T06:49:02.659Z,12.90
2018-10-03T06:51:31.430Z,13.20
2018-10-03T06:54:00.093Z,13.40
2018-10-03T06:56:29.066Z,13.60
2018-10-03T06:58:58.051Z,13.60
2018-10-03T07:01:26.706Z,13.50
2018-10-03T07:03:55.370Z,13.50
2018-10-03T07:06:24.059Z,13.80
2018-10-03T07:08:52.707Z,14.00
2018-10-03T07:11:21.374Z,14.10
2018-10-03T07:13:50.060Z,14.30
2018-10-03T07:16:19.258Z,14.30
2018-10-03T07:18:47.925Z,14.50
2018-10-03T07:21:16.589Z,14.70
2018-10-03T07:23:45.232Z,14.60
2018-10-03T07:26:13.955Z,14.40
2018-10-03T07:28:42.578Z,14.60
2018-10-03T07:31:11.250Z,14.90
2018-10-03T07:33:40.213Z,14.90
2018-10-03T07:36:08.972Z,15.00
2018-10-03T07:38:37.651Z,15.30
2018-10-03T07:41:06.338Z,15.30
2018-10-03T07:43:35.133Z,15.20
2018-10-03T07:46:03.789Z,15.20
2018-10-03T07:48:32.477Z,15.20
2018-10-03T07:51:01.138Z,15.20
2018-10-03T07:53:29.870Z,15.30
2018-10-03T07:55:58.671Z,15.30
2018-10-03T07:58:27.281Z,15.60
2018-10-03T08:00:55.941Z,15.60
2018-10-03T08:03:24.706Z,15.70
2018-10-03T08:05:53.361Z,15.80
2018-10-03T08:08:22.009Z,15.60
2018-10-03T08:10:50.681Z,15.60
2018-10-03T08:13:19.347Z,15.60
2018-10-03T08:15:48.023Z,15.80
2018-10-03T08:18:16.683Z,15.90
2018-10-03T08:20:45.337Z,15.90
2018-10-03T08:23:13.995Z,15.90
2018-10-03T08:25:42.654Z,15.90
2018-10-03T08:28:11.321Z,15.90
2018-10-03T08:30:39.987Z,16.00
2018-10-03T08:33:08.766Z,16.20
2018-10-03T08:35:37.498Z,16.60
2018-10-03T08:38:06.228Z,17.00
2018-10-03T08:40:34.877Z,17.10
2018-10-03T08:43:03.546Z,17.30
2018-10-03T08:45:32.264Z,17.20
2018-10-03T08:48:00.953Z,17.30
2018-10-03T08:50:29.644Z,17.40
2018-10-03T08:52:58.338Z,17.30
2018-10-03T08:55:26.994Z,17.30
2018-10-03T08:57:55.689Z,17.50
2018-10-03T09:00:24.304Z,17.70
2018-10-03T09:02:52.964Z,17.40
2018-10-03T09:05:21.624Z,17.50
2018-10-03T09:07:50.289Z,17.50
2018-10-03T09:10:19.001Z,17.40
2018-10-03T09:12:47.677Z,17.40
2018-10-03T09:15:16.338Z,17.50
2018-10-03T09:17:45.005Z,17.30
2018-10-03T09:20:13.649Z,16.80
2018-10-03T09:22:42.314Z,16.90
2018-10-03T09:25:10.994Z,17.10
2018-10-03T09:27:39.653Z,16.60
2018-10-03T09:30:08.329Z,16.50
2018-10-03T09:32:37.071Z,16.30
2018-10-03T09:35:05.732Z,16.70
2018-10-03T09:37:34.447Z,17.30
2018-10-03T09:40:03.193Z,17.70
2018-10-03T09:42:31.861Z,17.60
2018-10-03T09:45:00.530Z,17.80
2018-10-03T09:47:29.189Z,17.60
2018-10-03T09:49:57.843Z,17.20
2018-10-03T09:52:26.495Z,17.00
2018-10-03T09:54:55.167Z,16.70
2018-10-03T09:57:23.822Z,16.30
2018-10-03T09:59:52.490Z,16.10
2018-10-03T10:02:21.239Z,15.70
2018-10-03T10:04:49.903Z,15.30
2018-10-03T10:07:18.570Z,15.00
2018-10-03T10:09:47.223Z,14.90
2018-10-03T10:12:15.893Z,14.90
2018-10-03T10:14:44.563Z,14.80
2018-10-03T10:17:13.301Z,15.00
2018-10-03T10:19:42.076Z,15.30
2018-10-03T10:22:10.729Z,15.70
2018-10-03T10:24:39.550Z,15.90
2018-10-03T10:27:08.254Z,16.10
2018-10-03T10:29:36.901Z,16.10
2018-10-03T10:32:05.574Z,16.20
2018-10-03T10:34:34.218Z,16.40
2018-10-03T10:37:02.875Z,16.90
2018-10-03T10:39:31.517Z,17.30
2018-10-03T10:42:00.218Z,17.60
2018-10-03T10:44:28.877Z,17.70
2018-10-03T10:46:57.530Z,17.70
2018-10-03T10:49:26.188Z,17.50
2018-10-03T10:51:54.870Z,17.30
2018-10-03T10:54:23.592Z,17.10
2018-10-03T10:56:52.250Z,16.90
2018-10-03T10:59:20.904Z,16.90
2018-10-03T11:01:49.540Z,16.60
2018-10-03T11:04:18.232Z,16.40
2018-10-03T11:06:46.924Z,16.40
2018-10-03T11:09:15.549Z,16.10
2018-10-03T11:11:44.261Z,15.70
2018-10-03T11:14:12.912Z,15.30
2018-10-03T11:16:41.572Z,15.20
2018-10-03T11:19:10.258Z,15.10
2018-10-03T11:21:38.933Z,15.00
2018-10-03T11:24:07.659Z,15.00
2018-10-03T11:26:36.273Z,15.00
2018-10-03T11:29:05.280Z,15.30
2018-10-03T11:31:33.957Z,15.50
2018-10-03T11:34:02.621Z,15.70
2018-10-03T11:36:32.149Z,15.90
2018-10-03T11:39:00.864Z,16.00
2018-10-03T11:41:29.489Z,16.30
2018-10-03T11:43:58.346Z,16.30
2018-10-03T11:46:27.008Z,16.10
2018-10-03T11:48:55.657Z,16.00
2018-10-03T11:51:24.321Z,15.80
2018-10-03T11:53:52.982Z,15.60
2018-10-03T11:56:21.737Z,15.40
2018-10-03T11:58:50.430Z,15.30
2018-10-03T12:01:19.101Z,15.20
2018-10-03T12:03:47.797Z,15.40
2018-10-03T12:06:16.469Z,15.60
2018-10-03T12:08:45.174Z,15.70
2018-10-03T12:11:13.841Z,15.70
2018-10-03T12:13:42.616Z,15.80
2018-10-03T12:16:11.209Z,15.70
2018-10-03T12:18:39.906Z,15.50
2018-10-03T12:21:08.717Z,15.30
2018-10-03T12:23:37.489Z,15.00
2018-10-03T12:26:06.406Z,14.90
2018-10-03T12:28:35.081Z,14.80
2018-10-03T12:31:03.857Z,14.80
2018-10-03T12:33:32.616Z,14.80
2018-10-03T12:36:01.232Z,15.00
2018-10-03T12:38:29.987Z,15.10
2018-10-03T12:40:58.701Z,15.30
2018-10-03T12:43:27.374Z,15.40
2018-10-03T12:45:56.040Z,15.20
2018-10-03T12:48:24.692Z,15.10
2018-10-03T12:50:53.341Z,15.00
2018-10-03T12:53:22.101Z,15.10
2018-10-03T12:55:50.792Z,15.20
2018-10-03T12:58:19.453Z,15.20
2018-10-03T13:00:48.106Z,15.30
2018-10-03T13:03:16.764Z,15.40
2018-10-03T13:05:45.449Z,15.50
2018-10-03T13:08:14.109Z,15.50
2018-10-03T13:10:42.774Z,15.40
2018-10-03T13:13:11.433Z,15.30
2018-10-03T13:15:40.114Z,15.30
2018-10-03T13:18:08.885Z,15.20
2018-10-03T13:20:37.546Z,15.20
2018-10-03T13:23:06.209Z,15.20
2018-10-03T13:25:34.870Z,15.10
2018-10-03T13:28:03.594Z,15.20
2018-10-03T13:30:32.321Z,15.00
2018-10-03T13:33:00.917Z,14.90
2018-10-03T13:35:29.565Z,14.90
2018-10-03T13:37:58.225Z,14.90
2018-10-03T13:40:26.930Z,15.00
2018-10-03T13:42:55.601Z,15.10
2018-10-03T13:45:24.260Z,15.20
2018-10-03T13:47:52.906Z,15.10
2018-10-03T13:50:21.566Z,15.20
2018-10-03T13:52:50.223Z,15.20
2018-10-03T13:55:18.901Z,15.20
2018-10-03T13:57:47.559Z,15.10
2018-10-03T14:00:16.221Z,15.10
2018-10-03T14:02:44.882Z,15.00
2018-10-03T14:05:13.544Z,14.90
2018-10-03T14:07:42.232Z,14.90
2018-10-03T14:10:10.885Z,14.90
2018-10-03T14:12:39.579Z,14.80
2018-10-03T14:15:08.243Z,14.80
2018-10-03T14:17:36.897Z,14.90
2018-10-03T14:20:05.586Z,14.90
2018-10-03T14:22:34.241Z,14.90
2018-10-03T14:25:02.893Z,14.70
2018-10-03T14:27:31.541Z,14.50
2018-10-03T14:30:00.209Z,14.30
2018-10-03T14:32:28.865Z,14.40
2018-10-03T14:34:57.521Z,14.40
2018-10-03T14:37:26.186Z,14.40
2018-10-03T14:39:54.935Z,14.30
2018-10-03T14:42:23.543Z,14.30
2018-10-03T14:44:52.188Z,14.30
2018-10-03T14:47:20.837Z,14.40
2018-10-03T14:49:49.493Z,14.40
2018-10-03T14:52:18.317Z,14.30
2018-10-03T14:54:46.900Z,14.20
2018-10-03T14:57:15.564Z,14.30
2018-10-03T14:59:44.272Z,14.40
2018-10-03T15:02:12.933Z,14.50
2018-10-03T15:04:41.610Z,14.40
2018-10-03T15:07:11.301Z,14.30
2018-10-03T15:09:39.980Z,14.10
2018-10-03T15:12:08.769Z,14.00
2018-10-03T15:14:37.462Z,14.00
2018-10-03T15:17:06.381Z,13.90
2018-10-03T15:19:35.033Z,13.90
2018-10-03T15:22:03.698Z,13.90
2018-10-03T15:24:32.368Z,13.80
2018-10-03T15:27:01.024Z,13.70
2018-10-03T15:29:29.685Z,13.70
2018-10-03T15:31:58.341Z,13.70
2018-10-03T15:34:27.001Z,13.60
2018-10-03T15:36:55.662Z,13.70
2018-10-03T15:39:24.325Z,13.70
2018-10-03T15:41:52.985Z,13.70
2018-10-03T15:44:21.681Z,13.60
2018-10-03T15:46:50.351Z,13.40
2018-10-03T15:49:19.020Z,13.30
2018-10-03T15:51:50.942Z,13.20
2018-10-03T15:54:19.615Z,13.10
2018-10-03T15:56:48.278Z,13.00
2018-10-03T15:59:16.933Z,13.00
2018-10-03T16:01:45.607Z,12.90
2018-10-03T16:04:14.274Z,12.90
2018-10-03T16:06:42.946Z,12.80
2018-10-03T16:09:11.618Z,12.80
2018-10-03T16:11:41.272Z,12.70
2018-10-03T16:14:11.274Z,12.60
2018-10-03T16:16:39.982Z,12.70
2018-10-03T16:19:08.755Z,12.70
2018-10-03T16:21:37.423Z,12.70
2018-10-03T16:24:06.131Z,12.60
2018-10-03T16:26:34.861Z,12.60
2018-10-03T16:29:03.515Z,12.50
2018-10-03T16:31:32.385Z,12.50
2018-10-03T16:34:01.082Z,12.40
2018-10-03T16:36:29.749Z,12.40
2018-10-03T16:38:58.537Z,12.40
2018-10-03T16:41:27.081Z,12.40
2018-10-03T16:43:55.768Z,12.40
2018-10-03T16:46:24.424Z,12.50
2018-10-03T16:48:53.102Z,12.50
2018-10-03T16:51:21.779Z,12.50
2018-10-03T16:53:50.433Z,12.50
2018-10-03T16:56:19.179Z,12.40
2018-10-03T16:58:47.796Z,12.30
2018-10-03T17:01:16.479Z,12.20
2018-10-03T17:03:45.195Z,12.10
2018-10-03T17:06:13.860Z,12.00
2018-10-03T17:08:42.529Z,11.90
2018-10-03T17:11:11.199Z,11.90
2018-10-03T17:13:51.361Z,11.80
2018-10-03T17:16:20.105Z,11.70
2018-10-03T17:18:48.766Z,11.70
2018-10-03T17:21:17.552Z,11.70
2018-10-03T17:23:46.129Z,11.70
2018-10-03T17:26:14.796Z,11.60
2018-10-03T17:28:43.457Z,11.60
2018-10-03T17:31:12.143Z,11.60
2018-10-03T17:33:40.855Z,11.50
2018-10-03T17:36:09.576Z,11.40
2018-10-03T17:38:38.243Z,11.40
2018-10-03T17:41:06.966Z,11.30
2018-10-03T17:43:35.654Z,11.20
2018-10-03T17:46:04.335Z,11.10
2018-10-03T17:48:32.997Z,11.10
2018-10-03T17:51:01.686Z,11.00
2018-10-03T17:53:30.361Z,11.00
2018-10-03T17:55:59.022Z,11.00
2018-10-03T17:58:27.741Z,11.00
2018-10-03T18:00:56.413Z,11.00
2018-10-03T18:03:25.086Z,10.90
2018-10-03T18:05:53.764Z,10.90
2018-10-03T18:08:22.442Z,10.80
2018-10-03T18:10:51.190Z,10.70
2018-10-03T18:13:19.861Z,10.70
2018-10-03T18:15:48.562Z,10.70
2018-10-03T18:18:17.172Z,10.70
2018-10-03T18:20:46.006Z,10.70
2018-10-03T18:23:14.667Z,10.60
2018-10-03T18:25:43.456Z,10.40
2018-10-03T18:28:12.076Z,10.30
2018-10-03T18:30:40.751Z,10.30
2018-10-03T18:33:09.531Z,10.20
2018-10-03T18:35:38.306Z,10.30
2018-10-03T18:38:07.009Z,10.30
2018-10-03T18:40:35.683Z,10.30
2018-10-03T18:43:04.354Z,10.20
2018-10-03T18:45:33.052Z,10.20
2018-10-03T18:48:01.723Z,10.30
2018-10-03T18:50:30.387Z,10.30
2018-10-03T18:52:59.061Z,10.20
2018-10-03T18:55:27.724Z,10.10
2018-10-03T18:57:56.433Z,10.10
2018-10-03T19:00:25.144Z,10.20
2018-10-03T19:02:53.809Z,10.20
2018-10-03T19:05:22.465Z,10.20
2018-10-03T19:07:51.163Z,10.30
2018-10-03T19:10:19.821Z,10.40
2018-10-03T19:12:48.490Z,10.60
2018-10-03T19:15:17.158Z,10.70
2018-10-03T19:17:45.822Z,10.80
2018-10-03T19:20:14.560Z,10.80
2018-10-03T19:22:43.169Z,10.80
2018-10-03T19:25:11.945Z,10.70
2018-10-03T19:27:40.617Z,10.70
2018-10-03T19:30:09.282Z,10.70
2018-10-03T19:32:38.084Z,10.60
2018-10-03T19:35:06.759Z,10.60
2018-10-03T19:37:35.749Z,10.70
2018-10-03T19:40:04.443Z,10.70
2018-10-03T19:42:33.137Z,10.80
2018-10-03T19:45:01.847Z,10.90
2018-10-03T19:47:30.518Z,10.90
2018-10-03T19:49:59.204Z,11.00
2018-10-03T19:52:27.884Z,11.00
2018-10-03T19:54:56.554Z,11.00
2018-10-03T19:57:25.242Z,11.00
2018-10-03T19:59:53.926Z,11.00
2018-10-03T20:02:22.615Z,11.00
2018-10-03T20:04:51.292Z,11.10
2018-10-03T20:07:19.994Z,11.10
2018-10-03T20:09:48.662Z,11.00
2018-10-03T20:12:17.377Z,11.00
2018-10-03T20:14:46.150Z,11.00
2018-10-03T20:17:14.978Z,11.00
2018-10-03T20:19:43.649Z,11.10
2018-10-03T20:22:12.430Z,11.10
2018-10-03T20:24:41.316Z,11.10
2018-10-03T20:27:11.302Z,11.20
2018-10-03T20:29:39.981Z,11.20
2018-10-03T20:32:08.661Z,11.30
2018-10-03T20:34:37.650Z,11.20
2018-10-03T20:37:06.770Z,11.20
2018-10-03T20:39:35.478Z,11.20
2018-10-03T20:42:04.142Z,11.10
2018-10-03T20:44:32.880Z,11.00
2018-10-03T20:47:01.545Z,10.90
2018-10-03T20:49:30.253Z,10.90
2018-10-03T20:51:58.934Z,10.80
2018-10-03T20:54:27.659Z,10.70
2018-10-03T20:56:56.284Z,10.60
2018-10-03T20:59:24.968Z,10.50
2018-10-03T21:01:53.648Z,10.50
2018-10-03T21:04:22.316Z,10.50
2018-10-03T21:06:51.009Z,10.50
2018-10-03T21:09:19.686Z,10.50
2018-10-03T21:11:48.356Z,10.60
2018-10-03T21:14:17.063Z,10.50
2018-10-03T21:16:45.738Z,10.50
2018-10-03T21:19:14.415Z,10.50
2018-10-03T21:21:43.082Z,10.40
2018-10-03T21:24:11.775Z,10.30
2018-10-03T21:26:40.478Z,10.20
2018-10-03T21:29:09.153Z,10.10
2018-10-03T21:31:37.813Z,9.90
2018-10-03T21:34:06.476Z,9.90
2018-10-03T21:36:35.151Z,9.80
2018-10-03T21:39:05.029Z,9.60
2018-10-03T21:41:33.693Z,9.60
2018-10-03T21:44:02.405Z,9.50
2018-10-03T21:46:31.119Z,9.40
2018-10-03T21:48:59.812Z,9.40
2018-10-03T21:51:28.477Z,9.30
2018-10-03T21:53:57.353Z,9.30
2018-10-03T21:56:26.005Z,9.20
2018-10-03T21:58:54.678Z,9.10
2018-10-03T22:01:23.338Z,9.00
2018-10-03T22:03:52.027Z,9.00
2018-10-03T22:06:20.693Z,8.90
2018-10-03T22:08:49.373Z,8.80
2018-10-03T22:11:18.025Z,8.80
2018-10-03T22:13:46.684Z,8.80
2018-10-03T22:16:15.349Z,8.80
2018-10-03T22:18:44.042Z,8.70
2018-10-03T22:21:12.874Z,8.70
2018-10-03T22:23:41.549Z,8.70
2018-10-03T22:26:10.209Z,8.60
2018-10-03T22:28:38.865Z,8.60
2018-10-03T22:31:07.783Z,8.60
2018-10-03T22:33:36.469Z,8.60
2018-10-03T22:36:05.153Z,8.60
2018-10-03T22:38:33.933Z,8.60
2018-10-03T22:41:02.553Z,8.60
2018-10-03T22:43:31.473Z,8.60
2018-10-03T22:46:00.271Z,8.60
2018-10-03T22:48:28.942Z,8.60
2018-10-03T22:50:57.603Z,8.60
2018-10-03T22:53:26.315Z,8.60
2018-10-03T22:55:55.026Z,8.60
2018-10-03T22:58:23.719Z,8.70
2018-10-03T23:00:52.365Z,8.80
2018-10-03T23:03:21.053Z,8.80
2018-10-03T23:05:49.708Z,8.90
2018-10-03T23:08:18.401Z,9.00
2018-10-03T23:10:47.068Z,9.00
2018-10-03T23:13:15.764Z,9.10
2018-10-03T23:15:44.491Z,9.20
2018-10-03T23:18:13.185Z,9.20
2018-10-03T23:20:41.850Z,9.20
2018-10-03T23:23:10.520Z,9.30
2018-10-03T23:25:39.189Z,9.20
2018-10-03T23:28:07.849Z,9.20
2018-10-03T23:30:36.557Z,9.10
2018-10-03T23:33:05.237Z,9.00
2018-10-03T23:35:34.009Z,8.90
2018-10-03T23:38:02.704Z,9.00
2018-10-03T23:40:31.393Z,9.00
2018-10-03T23:43:00.151Z,9.00
2018-10-03T23:45:28.811Z,9.00
2018-10-03T23:47:57.497Z,9.00
2018-10-03T23:50:26.164Z,9.00
2018-10-03T23:52:54.850Z,9.00
2018-10-03T23:55:23.569Z,8.90
2018-10-03T23:57:52.237Z,8.90
